sensor_id;sensor_type;location;lat;lon;timestamp;P1;durP1;ratioP1;P2;durP2;ratioP2
4309;SDS011;2168;53.576;9.980;2023-02-16T00:00:15;27.80;;;17.73;;
4309;SDS011;2168;53.576;9.980;2023-02-16T00:02:41;34.70;;;19.33;;
4309;SDS011;2168;53.576;9.980;2023-02-16T00:05:15;32.60;;;19.57;;
4309;SDS011;2168;53.576;9.980;2023-02-16T00:07:46;32.13;;;18.73;;
4309;SDS011;2168;53.576;9.980;2023-02-16T00:10:11;31.40;;;20.17;;
4309;SDS011;2168;53.576;9.980;2023-02-16T00:12:36;32.03;;;19.80;;
4309;SDS011;2168;53.576;9.980;2023-02-16T00:15:20;28.57;;;18.20;;
4309;SDS011;2168;53.576;9.980;2023-02-16T00:17:45;30.13;;;19.20;;
4309;SDS011;2168;53.576;9.980;2023-02-16T00:20:14;29.73;;;19.77;;
4309;SDS011;2168;53.576;9.980;2023-02-16T00:22:40;29.40;;;19.20;;
4309;SDS011;2168;53.576;9.980;2023-02-16T00:25:05;32.10;;;18.20;;
4309;SDS011;2168;53.576;9.980;2023-02-16T00:27:30;33.87;;;19.57;;
4309;SDS011;2168;53.576;9.980;2023-02-16T00:29:56;30.07;;;18.60;;
4309;SDS011;2168;53.576;9.980;2023-02-16T00:32:21;33.00;;;17.97;;
4309;SDS011;2168;53.576;9.980;2023-02-16T00:34:46;33.27;;;21.00;;
4309;SDS011;2168;53.576;9.980;2023-02-16T00:37:12;29.13;;;19.90;;
4309;SDS011;2168;53.576;9.980;2023-02-16T00:39:39;34.90;;;19.53;;
4309;SDS011;2168;53.576;9.980;2023-02-16T00:42:05;31.80;;;18.90;;
4309;SDS011;2168;53.576;9.980;2023-02-16T00:44:39;30.73;;;18.93;;
4309;SDS011;2168;53.576;9.980;2023-02-16T00:49:46;34.03;;;20.17;;
4309;SDS011;2168;53.576;9.980;2023-02-16T00:54:46;35.17;;;19.87;;
4309;SDS011;2168;53.576;9.980;2023-02-16T00:57:13;36.33;;;19.27;;
4309;SDS011;2168;53.576;9.980;2023-02-16T00:59:40;30.40;;;19.70;;
4309;SDS011;2168;53.576;9.980;2023-02-16T01:02:05;30.93;;;18.70;;
4309;SDS011;2168;53.576;9.980;2023-02-16T01:04:30;30.30;;;19.20;;
4309;SDS011;2168;53.576;9.980;2023-02-16T01:06:55;36.97;;;20.77;;
4309;SDS011;2168;53.576;9.980;2023-02-16T01:09:39;32.47;;;19.50;;
4309;SDS011;2168;53.576;9.980;2023-02-16T01:12:23;32.97;;;20.10;;
4309;SDS011;2168;53.576;9.980;2023-02-16T01:14:52;34.20;;;21.47;;
4309;SDS011;2168;53.576;9.980;2023-02-16T01:17:18;31.83;;;20.03;;
4309;SDS011;2168;53.576;9.980;2023-02-16T01:19:43;38.70;;;21.43;;
4309;SDS011;2168;53.576;9.980;2023-02-16T01:22:08;35.03;;;19.40;;
4309;SDS011;2168;53.576;9.980;2023-02-16T01:24:33;42.63;;;22.07;;
4309;SDS011;2168;53.576;9.980;2023-02-16T01:26:58;39.43;;;19.90;;
4309;SDS011;2168;53.576;9.980;2023-02-16T01:29:23;36.60;;;21.90;;
4309;SDS011;2168;53.576;9.980;2023-02-16T01:31:49;35.00;;;21.00;;
4309;SDS011;2168;53.576;9.980;2023-02-16T01:34:14;35.00;;;21.73;;
4309;SDS011;2168;53.576;9.980;2023-02-16T01:36:43;35.63;;;20.60;;
4309;SDS011;2168;53.576;9.980;2023-02-16T01:39:10;37.70;;;22.50;;
4309;SDS011;2168;53.576;9.980;2023-02-16T01:41:39;38.47;;;22.47;;
4309;SDS011;2168;53.576;9.980;2023-02-16T01:44:09;33.20;;;20.67;;
4309;SDS011;2168;53.576;9.980;2023-02-16T01:46:42;35.87;;;21.57;;
4309;SDS011;2168;53.576;9.980;2023-02-16T01:49:12;35.80;;;21.80;;
4309;SDS011;2168;53.576;9.980;2023-02-16T01:51:40;31.33;;;20.70;;
4309;SDS011;2168;53.576;9.980;2023-02-16T01:54:11;38.50;;;22.90;;
4309;SDS011;2168;53.576;9.980;2023-02-16T01:59:16;33.20;;;21.47;;
4309;SDS011;2168;53.576;9.980;2023-02-16T02:01:55;37.30;;;22.40;;
4309;SDS011;2168;53.576;9.980;2023-02-16T02:04:26;42.80;;;21.83;;
4309;SDS011;2168;53.576;9.980;2023-02-16T02:07:13;37.00;;;21.07;;
4309;SDS011;2168;53.576;9.980;2023-02-16T02:09:44;40.57;;;22.40;;
4309;SDS011;2168;53.576;9.980;2023-02-16T02:12:17;34.93;;;21.87;;
4309;SDS011;2168;53.576;9.980;2023-02-16T02:14:45;36.70;;;23.43;;
4309;SDS011;2168;53.576;9.980;2023-02-16T02:17:13;37.03;;;20.50;;
4309;SDS011;2168;53.576;9.980;2023-02-16T02:30:48;32.07;;;19.37;;
4309;SDS011;2168;53.576;9.980;2023-02-16T02:33:25;40.83;;;22.13;;
4309;SDS011;2168;53.576;9.980;2023-02-16T02:43:41;35.30;;;22.27;;
4309;SDS011;2168;53.576;9.980;2023-02-16T02:48:35;38.33;;;22.13;;
4309;SDS011;2168;53.576;9.980;2023-02-16T02:54:07;40.27;;;22.60;;
4309;SDS011;2168;53.576;9.980;2023-02-16T02:56:56;36.10;;;21.87;;
4309;SDS011;2168;53.576;9.980;2023-02-16T02:59:42;38.97;;;21.73;;
4309;SDS011;2168;53.576;9.980;2023-02-16T03:02:28;37.13;;;22.73;;
4309;SDS011;2168;53.576;9.980;2023-02-16T03:04:54;44.20;;;21.60;;
4309;SDS011;2168;53.576;9.980;2023-02-16T03:07:21;33.97;;;21.83;;
4309;SDS011;2168;53.576;9.980;2023-02-16T03:09:47;35.13;;;21.40;;
4309;SDS011;2168;53.576;9.980;2023-02-16T03:12:32;37.28;;;21.20;;
4309;SDS011;2168;53.576;9.980;2023-02-16T03:15:24;36.50;;;22.17;;
4309;SDS011;2168;53.576;9.980;2023-02-16T03:17:49;34.10;;;20.67;;
4309;SDS011;2168;53.576;9.980;2023-02-16T03:20:33;44.57;;;20.90;;
4309;SDS011;2168;53.576;9.980;2023-02-16T03:23:17;38.87;;;22.33;;
4309;SDS011;2168;53.576;9.980;2023-02-16T03:26:01;35.27;;;21.27;;
4309;SDS011;2168;53.576;9.980;2023-02-16T03:28:45;41.13;;;21.50;;
4309;SDS011;2168;53.576;9.980;2023-02-16T03:31:31;35.47;;;20.57;;
4309;SDS011;2168;53.576;9.980;2023-02-16T03:33:57;33.60;;;21.50;;
4309;SDS011;2168;53.576;9.980;2023-02-16T03:36:23;34.23;;;21.60;;
4309;SDS011;2168;53.576;9.980;2023-02-16T03:38:48;36.97;;;20.53;;
4309;SDS011;2168;53.576;9.980;2023-02-16T03:41:14;37.83;;;21.93;;
4309;SDS011;2168;53.576;9.980;2023-02-16T03:43:40;32.83;;;19.50;;
4309;SDS011;2168;53.576;9.980;2023-02-16T03:46:05;32.00;;;20.23;;
4309;SDS011;2168;53.576;9.980;2023-02-16T03:48:30;32.30;;;20.47;;
4309;SDS011;2168;53.576;9.980;2023-02-16T03:50:55;36.63;;;21.77;;
4309;SDS011;2168;53.576;9.980;2023-02-16T03:53:20;34.93;;;20.17;;
4309;SDS011;2168;53.576;9.980;2023-02-16T03:55:46;38.13;;;21.83;;
4309;SDS011;2168;53.576;9.980;2023-02-16T03:58:13;34.07;;;20.37;;
4309;SDS011;2168;53.576;9.980;2023-02-16T04:00:38;36.07;;;21.73;;
4309;SDS011;2168;53.576;9.980;2023-02-16T04:03:04;36.87;;;21.57;;
4309;SDS011;2168;53.576;9.980;2023-02-16T04:05:30;36.53;;;21.43;;
4309;SDS011;2168;53.576;9.980;2023-02-16T04:07:55;35.03;;;19.93;;
4309;SDS011;2168;53.576;9.980;2023-02-16T04:10:20;33.87;;;20.53;;
4309;SDS011;2168;53.576;9.980;2023-02-16T04:12:46;40.63;;;20.63;;
4309;SDS011;2168;53.576;9.980;2023-02-16T04:15:12;35.17;;;19.50;;
4309;SDS011;2168;53.576;9.980;2023-02-16T04:17:38;39.57;;;20.93;;
4309;SDS011;2168;53.576;9.980;2023-02-16T04:20:03;32.63;;;20.80;;
4309;SDS011;2168;53.576;9.980;2023-02-16T04:22:29;35.60;;;20.07;;
4309;SDS011;2168;53.576;9.980;2023-02-16T04:24:54;31.60;;;19.60;;
4309;SDS011;2168;53.576;9.980;2023-02-16T04:27:19;32.90;;;20.40;;
4309;SDS011;2168;53.576;9.980;2023-02-16T04:29:44;35.90;;;20.87;;
4309;SDS011;2168;53.576;9.980;2023-02-16T04:32:10;34.53;;;21.13;;
4309;SDS011;2168;53.576;9.980;2023-02-16T04:34:35;30.17;;;19.60;;
4309;SDS011;2168;53.576;9.980;2023-02-16T04:37:00;32.53;;;19.50;;
4309;SDS011;2168;53.576;9.980;2023-02-16T04:39:26;36.20;;;19.33;;
4309;SDS011;2168;53.576;9.980;2023-02-16T04:41:52;34.17;;;19.27;;
4309;SDS011;2168;53.576;9.980;2023-02-16T04:44:17;35.53;;;19.43;;
4309;SDS011;2168;53.576;9.980;2023-02-16T04:46:42;33.57;;;20.27;;
4309;SDS011;2168;53.576;9.980;2023-02-16T04:49:07;35.63;;;20.77;;
4309;SDS011;2168;53.576;9.980;2023-02-16T04:51:32;33.40;;;20.30;;
4309;SDS011;2168;53.576;9.980;2023-02-16T04:53:58;32.53;;;20.20;;
4309;SDS011;2168;53.576;9.980;2023-02-16T04:56:23;33.97;;;20.33;;
4309;SDS011;2168;53.576;9.980;2023-02-16T04:58:48;37.40;;;19.20;;
4309;SDS011;2168;53.576;9.980;2023-02-16T05:01:17;31.10;;;19.37;;
4309;SDS011;2168;53.576;9.980;2023-02-16T05:03:42;36.10;;;20.00;;
4309;SDS011;2168;53.576;9.980;2023-02-16T05:06:07;36.40;;;19.87;;
4309;SDS011;2168;53.576;9.980;2023-02-16T05:08:32;32.83;;;19.93;;
4309;SDS011;2168;53.576;9.980;2023-02-16T05:10:57;29.67;;;19.70;;
4309;SDS011;2168;53.576;9.980;2023-02-16T05:13:41;35.73;;;21.57;;
4309;SDS011;2168;53.576;9.980;2023-02-16T05:16:25;32.97;;;19.10;;
4309;SDS011;2168;53.576;9.980;2023-02-16T05:18:51;31.90;;;19.87;;
4309;SDS011;2168;53.576;9.980;2023-02-16T05:21:16;35.07;;;21.17;;
4309;SDS011;2168;53.576;9.980;2023-02-16T05:23:56;35.10;;;19.70;;
4309;SDS011;2168;53.576;9.980;2023-02-16T05:26:22;30.47;;;18.80;;
4309;SDS011;2168;53.576;9.980;2023-02-16T05:28:47;33.90;;;19.13;;
4309;SDS011;2168;53.576;9.980;2023-02-16T05:31:12;37.53;;;20.47;;
4309;SDS011;2168;53.576;9.980;2023-02-16T05:33:37;33.00;;;19.60;;
4309;SDS011;2168;53.576;9.980;2023-02-16T05:36:03;30.67;;;18.93;;
4309;SDS011;2168;53.576;9.980;2023-02-16T05:38:28;32.70;;;18.67;;
4309;SDS011;2168;53.576;9.980;2023-02-16T05:40:53;40.63;;;19.40;;
4309;SDS011;2168;53.576;9.980;2023-02-16T05:43:18;31.70;;;19.40;;
4309;SDS011;2168;53.576;9.980;2023-02-16T05:45:43;34.00;;;19.53;;
4309;SDS011;2168;53.576;9.980;2023-02-16T05:48:08;33.10;;;18.83;;
4309;SDS011;2168;53.576;9.980;2023-02-16T05:50:34;34.03;;;19.43;;
4309;SDS011;2168;53.576;9.980;2023-02-16T05:52:59;31.00;;;20.30;;
4309;SDS011;2168;53.576;9.980;2023-02-16T05:55:24;33.30;;;20.67;;
4309;SDS011;2168;53.576;9.980;2023-02-16T05:57:49;37.87;;;20.07;;
4309;SDS011;2168;53.576;9.980;2023-02-16T06:00:14;29.10;;;19.03;;
4309;SDS011;2168;53.576;9.980;2023-02-16T06:02:40;36.67;;;20.70;;
4309;SDS011;2168;53.576;9.980;2023-02-16T06:05:05;35.30;;;19.70;;
4309;SDS011;2168;53.576;9.980;2023-02-16T06:07:30;35.67;;;19.70;;
4309;SDS011;2168;53.576;9.980;2023-02-16T06:09:56;40.10;;;21.10;;
4309;SDS011;2168;53.576;9.980;2023-02-16T06:12:21;37.50;;;20.73;;
4309;SDS011;2168;53.576;9.980;2023-02-16T06:14:46;38.17;;;20.67;;
4309;SDS011;2168;53.576;9.980;2023-02-16T06:17:11;33.50;;;19.70;;
4309;SDS011;2168;53.576;9.980;2023-02-16T06:19:36;36.90;;;20.50;;
4309;SDS011;2168;53.576;9.980;2023-02-16T06:22:02;32.90;;;21.00;;
4309;SDS011;2168;53.576;9.980;2023-02-16T06:24:27;35.23;;;21.67;;
4309;SDS011;2168;53.576;9.980;2023-02-16T06:26:52;42.63;;;21.10;;
4309;SDS011;2168;53.576;9.980;2023-02-16T06:29:17;37.40;;;21.70;;
4309;SDS011;2168;53.576;9.980;2023-02-16T06:31:42;40.90;;;22.27;;
4309;SDS011;2168;53.576;9.980;2023-02-16T06:34:08;36.97;;;21.97;;
4309;SDS011;2168;53.576;9.980;2023-02-16T06:36:33;35.87;;;21.70;;
4309;SDS011;2168;53.576;9.980;2023-02-16T06:38:58;35.43;;;20.90;;
4309;SDS011;2168;53.576;9.980;2023-02-16T06:41:23;42.17;;;23.37;;
4309;SDS011;2168;53.576;9.980;2023-02-16T06:43:58;35.20;;;20.10;;
4309;SDS011;2168;53.576;9.980;2023-02-16T06:46:23;42.77;;;23.33;;
4309;SDS011;2168;53.576;9.980;2023-02-16T06:48:49;37.20;;;22.70;;
4309;SDS011;2168;53.576;9.980;2023-02-16T06:51:16;39.20;;;23.13;;
4309;SDS011;2168;53.576;9.980;2023-02-16T06:53:41;42.17;;;21.63;;
4309;SDS011;2168;53.576;9.980;2023-02-16T06:56:06;37.77;;;22.57;;
4309;SDS011;2168;53.576;9.980;2023-02-16T06:58:31;37.77;;;22.27;;
4309;SDS011;2168;53.576;9.980;2023-02-16T07:00:57;33.27;;;21.00;;
4309;SDS011;2168;53.576;9.980;2023-02-16T07:03:22;43.23;;;23.57;;
4309;SDS011;2168;53.576;9.980;2023-02-16T07:05:48;39.13;;;23.37;;
4309;SDS011;2168;53.576;9.980;2023-02-16T07:08:13;35.50;;;21.73;;
4309;SDS011;2168;53.576;9.980;2023-02-16T07:10:41;40.67;;;22.67;;
4309;SDS011;2168;53.576;9.980;2023-02-16T07:13:06;44.43;;;24.43;;
4309;SDS011;2168;53.576;9.980;2023-02-16T07:15:31;42.13;;;23.80;;
4309;SDS011;2168;53.576;9.980;2023-02-16T07:17:57;39.57;;;22.77;;
4309;SDS011;2168;53.576;9.980;2023-02-16T07:20:22;42.07;;;24.13;;
4309;SDS011;2168;53.576;9.980;2023-02-16T07:22:47;45.57;;;24.77;;
4309;SDS011;2168;53.576;9.980;2023-02-16T07:25:12;41.03;;;23.07;;
4309;SDS011;2168;53.576;9.980;2023-02-16T07:27:38;43.63;;;26.57;;
4309;SDS011;2168;53.576;9.980;2023-02-16T07:30:03;40.57;;;24.17;;
4309;SDS011;2168;53.576;9.980;2023-02-16T07:32:28;50.27;;;24.03;;
4309;SDS011;2168;53.576;9.980;2023-02-16T07:34:53;39.10;;;24.17;;
4309;SDS011;2168;53.576;9.980;2023-02-16T07:37:18;44.77;;;24.10;;
4309;SDS011;2168;53.576;9.980;2023-02-16T07:39:44;39.60;;;24.07;;
4309;SDS011;2168;53.576;9.980;2023-02-16T07:42:09;41.33;;;24.50;;
4309;SDS011;2168;53.576;9.980;2023-02-16T07:44:34;43.33;;;24.03;;
4309;SDS011;2168;53.576;9.980;2023-02-16T07:46:59;44.93;;;23.70;;
4309;SDS011;2168;53.576;9.980;2023-02-16T07:49:24;39.93;;;23.53;;
4309;SDS011;2168;53.576;9.980;2023-02-16T07:51:50;46.80;;;24.50;;
4309;SDS011;2168;53.576;9.980;2023-02-16T07:54:15;41.60;;;24.43;;
4309;SDS011;2168;53.576;9.980;2023-02-16T07:56:40;45.87;;;25.50;;
4309;SDS011;2168;53.576;9.980;2023-02-16T07:59:05;32.67;;;22.90;;
4309;SDS011;2168;53.576;9.980;2023-02-16T08:01:31;43.30;;;23.83;;
4309;SDS011;2168;53.576;9.980;2023-02-16T08:03:56;39.33;;;24.13;;
4309;SDS011;2168;53.576;9.980;2023-02-16T08:06:21;34.37;;;23.07;;
4309;SDS011;2168;53.576;9.980;2023-02-16T08:08:47;40.97;;;23.30;;
4309;SDS011;2168;53.576;9.980;2023-02-16T08:11:16;41.47;;;23.10;;
4309;SDS011;2168;53.576;9.980;2023-02-16T08:13:41;41.37;;;23.70;;
4309;SDS011;2168;53.576;9.980;2023-02-16T08:16:10;40.23;;;22.90;;
4309;SDS011;2168;53.576;9.980;2023-02-16T08:18:36;34.43;;;22.50;;
4309;SDS011;2168;53.576;9.980;2023-02-16T08:21:15;35.33;;;22.70;;
4309;SDS011;2168;53.576;9.980;2023-02-16T08:23:51;40.30;;;24.67;;
4309;SDS011;2168;53.576;9.980;2023-02-16T08:26:17;41.03;;;23.10;;
4309;SDS011;2168;53.576;9.980;2023-02-16T08:28:43;36.20;;;22.77;;
4309;SDS011;2168;53.576;9.980;2023-02-16T08:31:14;37.30;;;22.10;;
4309;SDS011;2168;53.576;9.980;2023-02-16T08:33:41;40.23;;;22.90;;
4309;SDS011;2168;53.576;9.980;2023-02-16T08:36:08;38.00;;;22.60;;
4309;SDS011;2168;53.576;9.980;2023-02-16T08:38:39;39.97;;;24.00;;
4309;SDS011;2168;53.576;9.980;2023-02-16T08:41:07;38.20;;;23.60;;
4309;SDS011;2168;53.576;9.980;2023-02-16T08:43:32;40.23;;;22.47;;
4309;SDS011;2168;53.576;9.980;2023-02-16T08:45:58;32.80;;;22.00;;
4309;SDS011;2168;53.576;9.980;2023-02-16T08:48:23;39.20;;;23.43;;
4309;SDS011;2168;53.576;9.980;2023-02-16T08:50:48;39.33;;;23.73;;
4309;SDS011;2168;53.576;9.980;2023-02-16T08:53:20;40.40;;;23.43;;
4309;SDS011;2168;53.576;9.980;2023-02-16T08:55:53;43.13;;;23.33;;
4309;SDS011;2168;53.576;9.980;2023-02-16T08:58:19;48.10;;;23.50;;
4309;SDS011;2168;53.576;9.980;2023-02-16T09:00:44;38.20;;;23.40;;
4309;SDS011;2168;53.576;9.980;2023-02-16T09:03:10;43.30;;;22.50;;
4309;SDS011;2168;53.576;9.980;2023-02-16T09:05:35;39.93;;;23.63;;
4309;SDS011;2168;53.576;9.980;2023-02-16T09:08:00;37.97;;;22.20;;
4309;SDS011;2168;53.576;9.980;2023-02-16T09:10:26;37.17;;;21.40;;
4309;SDS011;2168;53.576;9.980;2023-02-16T09:12:51;39.93;;;23.10;;
4309;SDS011;2168;53.576;9.980;2023-02-16T09:15:16;37.90;;;22.73;;
4309;SDS011;2168;53.576;9.980;2023-02-16T09:17:42;36.93;;;23.40;;
4309;SDS011;2168;53.576;9.980;2023-02-16T09:20:07;40.23;;;23.07;;
4309;SDS011;2168;53.576;9.980;2023-02-16T09:22:33;36.23;;;22.50;;
4309;SDS011;2168;53.576;9.980;2023-02-16T09:24:58;42.00;;;23.87;;
4309;SDS011;2168;53.576;9.980;2023-02-16T09:27:23;39.60;;;23.17;;
4309;SDS011;2168;53.576;9.980;2023-02-16T09:29:48;41.63;;;23.83;;
4309;SDS011;2168;53.576;9.980;2023-02-16T09:32:14;37.80;;;24.57;;
4309;SDS011;2168;53.576;9.980;2023-02-16T09:34:39;38.70;;;24.10;;
4309;SDS011;2168;53.576;9.980;2023-02-16T09:37:05;44.90;;;25.00;;
4309;SDS011;2168;53.576;9.980;2023-02-16T09:39:30;38.57;;;22.80;;
4309;SDS011;2168;53.576;9.980;2023-02-16T09:41:59;40.10;;;25.00;;
4309;SDS011;2168;53.576;9.980;2023-02-16T09:46:51;48.77;;;23.13;;
4309;SDS011;2168;53.576;9.980;2023-02-16T09:49:22;40.40;;;22.93;;
4309;SDS011;2168;53.576;9.980;2023-02-16T09:51:48;38.00;;;23.67;;
4309;SDS011;2168;53.576;9.980;2023-02-16T09:54:30;40.70;;;24.60;;
4309;SDS011;2168;53.576;9.980;2023-02-16T09:57:01;37.90;;;22.73;;
4309;SDS011;2168;53.576;9.980;2023-02-16T10:05:23;37.97;;;23.47;;
4309;SDS011;2168;53.576;9.980;2023-02-16T10:10:21;37.33;;;23.57;;
4309;SDS011;2168;53.576;9.980;2023-02-16T10:12:49;37.00;;;23.37;;
4309;SDS011;2168;53.576;9.980;2023-02-16T10:15:23;38.63;;;24.07;;
4309;SDS011;2168;53.576;9.980;2023-02-16T10:17:54;40.73;;;24.73;;
4309;SDS011;2168;53.576;9.980;2023-02-16T10:20:30;37.17;;;23.10;;
4309;SDS011;2168;53.576;9.980;2023-02-16T10:23:12;38.03;;;24.07;;
4309;SDS011;2168;53.576;9.980;2023-02-16T10:26:01;38.10;;;24.67;;
4309;SDS011;2168;53.576;9.980;2023-02-16T10:28:31;44.93;;;25.33;;
4309;SDS011;2168;53.576;9.980;2023-02-16T10:31:01;46.30;;;25.03;;
4309;SDS011;2168;53.576;9.980;2023-02-16T10:33:34;46.50;;;24.37;;
4309;SDS011;2168;53.576;9.980;2023-02-16T10:36:08;40.73;;;25.40;;
4309;SDS011;2168;53.576;9.980;2023-02-16T10:41:14;39.23;;;25.60;;
4309;SDS011;2168;53.576;9.980;2023-02-16T10:43:42;39.63;;;24.57;;
4309;SDS011;2168;53.576;9.980;2023-02-16T10:46:09;42.53;;;24.93;;
4309;SDS011;2168;53.576;9.980;2023-02-16T10:48:35;35.07;;;23.20;;
4309;SDS011;2168;53.576;9.980;2023-02-16T10:51:02;38.07;;;24.77;;
4309;SDS011;2168;53.576;9.980;2023-02-16T10:58:50;40.63;;;26.57;;
4309;SDS011;2168;53.576;9.980;2023-02-16T11:01:28;42.00;;;25.07;;
4309;SDS011;2168;53.576;9.980;2023-02-16T11:03:57;38.33;;;24.30;;
4309;SDS011;2168;53.576;9.980;2023-02-16T11:06:23;43.67;;;25.03;;
4309;SDS011;2168;53.576;9.980;2023-02-16T11:08:59;40.90;;;24.47;;
4309;SDS011;2168;53.576;9.980;2023-02-16T11:11:38;45.73;;;26.80;;
4309;SDS011;2168;53.576;9.980;2023-02-16T11:14:06;41.53;;;24.10;;
4309;SDS011;2168;53.576;9.980;2023-02-16T11:16:31;42.70;;;25.47;;
4309;SDS011;2168;53.576;9.980;2023-02-16T11:19:07;37.70;;;24.57;;
4309;SDS011;2168;53.576;9.980;2023-02-16T11:21:47;39.23;;;24.57;;
4309;SDS011;2168;53.576;9.980;2023-02-16T11:24:21;42.70;;;25.77;;
4309;SDS011;2168;53.576;9.980;2023-02-16T11:26:57;38.90;;;24.77;;
4309;SDS011;2168;53.576;9.980;2023-02-16T11:29:23;37.53;;;24.10;;
4309;SDS011;2168;53.576;9.980;2023-02-16T11:31:48;45.30;;;26.13;;
4309;SDS011;2168;53.576;9.980;2023-02-16T11:36:45;40.83;;;25.43;;
4309;SDS011;2168;53.576;9.980;2023-02-16T11:39:24;48.00;;;26.00;;
4309;SDS011;2168;53.576;9.980;2023-02-16T11:44:21;39.90;;;26.27;;
4309;SDS011;2168;53.576;9.980;2023-02-16T11:46:48;43.50;;;25.93;;
4309;SDS011;2168;53.576;9.980;2023-02-16T11:49:34;37.87;;;24.87;;
4309;SDS011;2168;53.576;9.980;2023-02-16T11:51:59;48.03;;;25.40;;
4309;SDS011;2168;53.576;9.980;2023-02-16T11:54:25;40.90;;;25.50;;
4309;SDS011;2168;53.576;9.980;2023-02-16T11:57:01;40.93;;;24.87;;
4309;SDS011;2168;53.576;9.980;2023-02-16T11:59:27;37.10;;;25.40;;
4309;SDS011;2168;53.576;9.980;2023-02-16T12:04:56;44.67;;;26.40;;
4309;SDS011;2168;53.576;9.980;2023-02-16T12:07:38;45.23;;;25.67;;
4309;SDS011;2168;53.576;9.980;2023-02-16T12:15:09;56.78;;;27.35;;
4309;SDS011;2168;53.576;9.980;2023-02-16T12:22:46;47.93;;;27.50;;
4309;SDS011;2168;53.576;9.980;2023-02-16T12:36:26;48.50;;;29.53;;
4309;SDS011;2168;53.576;9.980;2023-02-16T12:44:09;53.37;;;30.47;;
4309;SDS011;2168;53.576;9.980;2023-02-16T12:47:24;49.10;;;29.40;;
4309;SDS011;2168;53.576;9.980;2023-02-16T12:49:30;49.73;;;27.87;;
4309;SDS011;2168;53.576;9.980;2023-02-16T12:52:11;51.40;;;29.80;;
4309;SDS011;2168;53.576;9.980;2023-02-16T12:54:58;55.80;;;29.60;;
4309;SDS011;2168;53.576;9.980;2023-02-16T12:57:26;53.80;;;30.53;;
4309;SDS011;2168;53.576;9.980;2023-02-16T13:00:04;54.67;;;30.93;;
4309;SDS011;2168;53.576;9.980;2023-02-16T13:02:50;57.27;;;29.37;;
4309;SDS011;2168;53.576;9.980;2023-02-16T13:05:19;56.23;;;31.20;;
4309;SDS011;2168;53.576;9.980;2023-02-16T13:08:11;54.37;;;30.10;;
4309;SDS011;2168;53.576;9.980;2023-02-16T13:10:38;59.73;;;31.23;;
4309;SDS011;2168;53.576;9.980;2023-02-16T13:13:17;59.57;;;33.30;;
4309;SDS011;2168;53.576;9.980;2023-02-16T13:15:47;58.60;;;33.33;;
4309;SDS011;2168;53.576;9.980;2023-02-16T13:18:21;55.73;;;30.80;;
4309;SDS011;2168;53.576;9.980;2023-02-16T13:20:47;57.47;;;32.03;;
4309;SDS011;2168;53.576;9.980;2023-02-16T13:26:13;56.97;;;30.93;;
4309;SDS011;2168;53.576;9.980;2023-02-16T13:28:52;61.20;;;33.63;;
4309;SDS011;2168;53.576;9.980;2023-02-16T13:31:31;54.77;;;29.70;;
4309;SDS011;2168;53.576;9.980;2023-02-16T13:36:30;56.17;;;30.27;;
4309;SDS011;2168;53.576;9.980;2023-02-16T13:44:20;50.80;;;28.67;;
4309;SDS011;2168;53.576;9.980;2023-02-16T13:46:49;47.60;;;29.60;;
4309;SDS011;2168;53.576;9.980;2023-02-16T13:51:54;50.47;;;30.10;;
4309;SDS011;2168;53.576;9.980;2023-02-16T13:54:29;53.13;;;31.20;;
4309;SDS011;2168;53.576;9.980;2023-02-16T13:56:54;51.37;;;31.00;;
4309;SDS011;2168;53.576;9.980;2023-02-16T14:01:46;52.63;;;31.90;;
4309;SDS011;2168;53.576;9.980;2023-02-16T14:12:03;58.00;;;33.43;;
4309;SDS011;2168;53.576;9.980;2023-02-16T14:32:43;55.20;;;32.73;;
4309;SDS011;2168;53.576;9.980;2023-02-16T14:37:43;54.27;;;32.60;;
4309;SDS011;2168;53.576;9.980;2023-02-16T14:40:11;48.87;;;30.33;;
4309;SDS011;2168;53.576;9.980;2023-02-16T14:42:36;52.90;;;32.47;;
4309;SDS011;2168;53.576;9.980;2023-02-16T14:50:10;52.30;;;30.67;;
4309;SDS011;2168;53.576;9.980;2023-02-16T15:00:26;51.53;;;30.27;;
4309;SDS011;2168;53.576;9.980;2023-02-16T15:02:56;51.83;;;31.40;;
4309;SDS011;2168;53.576;9.980;2023-02-16T15:05:23;51.90;;;31.20;;
4309;SDS011;2168;53.576;9.980;2023-02-16T15:07:53;50.73;;;30.93;;
4309;SDS011;2168;53.576;9.980;2023-02-16T15:10:22;53.37;;;32.43;;
4309;SDS011;2168;53.576;9.980;2023-02-16T15:12:51;51.33;;;30.97;;
4309;SDS011;2168;53.576;9.980;2023-02-16T15:15:18;53.90;;;30.10;;
4309;SDS011;2168;53.576;9.980;2023-02-16T15:17:46;51.30;;;30.93;;
4309;SDS011;2168;53.576;9.980;2023-02-16T15:20:34;48.97;;;31.27;;
4309;SDS011;2168;53.576;9.980;2023-02-16T15:23:01;55.20;;;29.97;;
4309;SDS011;2168;53.576;9.980;2023-02-16T15:25:31;49.27;;;31.87;;
4309;SDS011;2168;53.576;9.980;2023-02-16T15:28:19;48.10;;;30.63;;
4309;SDS011;2168;53.576;9.980;2023-02-16T15:30:53;55.47;;;32.43;;
4309;SDS011;2168;53.576;9.980;2023-02-16T15:35:50;51.00;;;32.00;;
4309;SDS011;2168;53.576;9.980;2023-02-16T15:40:41;54.92;;;31.98;;
4309;SDS011;2168;53.576;9.980;2023-02-16T15:43:17;56.10;;;33.87;;
4309;SDS011;2168;53.576;9.980;2023-02-16T15:45:46;52.90;;;31.40;;
4309;SDS011;2168;53.576;9.980;2023-02-16T15:50:47;56.50;;;32.40;;
4309;SDS011;2168;53.576;9.980;2023-02-16T15:53:13;61.30;;;34.07;;
4309;SDS011;2168;53.576;9.980;2023-02-16T15:55:43;56.57;;;36.33;;
4309;SDS011;2168;53.576;9.980;2023-02-16T15:58:09;66.73;;;38.20;;
4309;SDS011;2168;53.576;9.980;2023-02-16T16:00:37;64.93;;;38.20;;
4309;SDS011;2168;53.576;9.980;2023-02-16T16:03:04;60.10;;;37.23;;
4309;SDS011;2168;53.576;9.980;2023-02-16T16:05:32;60.23;;;39.37;;
4309;SDS011;2168;53.576;9.980;2023-02-16T16:08:00;67.93;;;39.57;;
4309;SDS011;2168;53.576;9.980;2023-02-16T16:10:29;68.97;;;41.10;;
4309;SDS011;2168;53.576;9.980;2023-02-16T16:12:57;73.60;;;41.60;;
4309;SDS011;2168;53.576;9.980;2023-02-16T16:15:23;66.47;;;40.07;;
4309;SDS011;2168;53.576;9.980;2023-02-16T16:17:51;78.90;;;43.57;;
4309;SDS011;2168;53.576;9.980;2023-02-16T16:20:37;73.27;;;42.67;;
4309;SDS011;2168;53.576;9.980;2023-02-16T16:27:59;80.90;;;46.83;;
4309;SDS011;2168;53.576;9.980;2023-02-16T16:30:27;73.53;;;44.23;;
4309;SDS011;2168;53.576;9.980;2023-02-16T16:32:59;74.80;;;44.53;;
4309;SDS011;2168;53.576;9.980;2023-02-16T16:35:45;80.23;;;43.17;;
4309;SDS011;2168;53.576;9.980;2023-02-16T16:38:27;72.20;;;40.97;;
4309;SDS011;2168;53.576;9.980;2023-02-16T16:40:56;66.67;;;41.70;;
4309;SDS011;2168;53.576;9.980;2023-02-16T16:43:27;75.57;;;43.03;;
4309;SDS011;2168;53.576;9.980;2023-02-16T16:46:09;71.70;;;40.77;;
4309;SDS011;2168;53.576;9.980;2023-02-16T16:48:36;65.53;;;39.90;;
4309;SDS011;2168;53.576;9.980;2023-02-16T16:53:38;60.90;;;37.90;;
4309;SDS011;2168;53.576;9.980;2023-02-16T16:56:07;67.30;;;37.10;;
4309;SDS011;2168;53.576;9.980;2023-02-16T16:58:32;62.47;;;38.17;;
4309;SDS011;2168;53.576;9.980;2023-02-16T17:00:58;59.73;;;37.00;;
4309;SDS011;2168;53.576;9.980;2023-02-16T17:03:23;60.37;;;35.70;;
4309;SDS011;2168;53.576;9.980;2023-02-16T17:05:48;62.37;;;35.27;;
4309;SDS011;2168;53.576;9.980;2023-02-16T17:08:13;63.57;;;35.80;;
4309;SDS011;2168;53.576;9.980;2023-02-16T17:10:39;60.17;;;34.70;;
4309;SDS011;2168;53.576;9.980;2023-02-16T17:13:04;55.97;;;34.97;;
4309;SDS011;2168;53.576;9.980;2023-02-16T17:15:31;51.97;;;32.40;;
4309;SDS011;2168;53.576;9.980;2023-02-16T17:17:57;50.53;;;31.90;;
4309;SDS011;2168;53.576;9.980;2023-02-16T17:20:22;56.13;;;31.97;;
4309;SDS011;2168;53.576;9.980;2023-02-16T17:22:48;52.07;;;30.57;;
4309;SDS011;2168;53.576;9.980;2023-02-16T17:25:13;58.87;;;32.90;;
4309;SDS011;2168;53.576;9.980;2023-02-16T17:27:38;55.93;;;30.87;;
4309;SDS011;2168;53.576;9.980;2023-02-16T17:30:03;51.40;;;31.77;;
4309;SDS011;2168;53.576;9.980;2023-02-16T17:32:29;54.87;;;32.20;;
4309;SDS011;2168;53.576;9.980;2023-02-16T17:34:55;52.07;;;31.97;;